EWG44 EDDG-EDDH
Flight info
| Callsign | EWG44 |
|---|---|
| Flight time | 0h 40m |
| Altitude | 23000 |
| Route | OSN9E OSN DCT STADE DCT RIBSO RIBSO7A |
| Aircraft | A20N/M-SDE2E3FGHIRWXY/LB1 |
Departure
| Time | 2026-05-05 15:33 |
|---|---|
| Airport | Münster Osnabrück Airport (EDDG) |
Arrival
| Time | 2026-05-05 16:13 |
|---|---|
| Airport | Hamburg Helmut Schmidt Airport (EDDH) |
| Time | Latitude | Longitude | Altitude | Speed | Heading |
|---|---|---|---|---|---|
| 2026-05-05 14:58 | 52.13134 | 7.69222 | 168 ft | 0 kts | 187° |
| 2026-05-05 15:23 | 52.13140 | 7.69223 | 167 ft | 1 kts | 187° |
| 2026-05-05 15:23 | 52.13148 | 7.69225 | 167 ft | 1 kts | 187° |
| 2026-05-05 15:24 | 52.13156 | 7.69227 | 167 ft | 1 kts | 187° |
| 2026-05-05 15:24 | 52.13164 | 7.69228 | 167 ft | 1 kts | 187° |
| 2026-05-05 15:24 | 52.13172 | 7.69230 | 167 ft | 1 kts | 187° |
| 2026-05-05 15:24 | 52.13186 | 7.69234 | 167 ft | 2 kts | 200° |
| 2026-05-05 15:25 | 52.13199 | 7.69244 | 167 ft | 2 kts | 218° |
| 2026-05-05 15:25 | 52.13210 | 7.69260 | 166 ft | 2 kts | 237° |
| 2026-05-05 15:25 | 52.13216 | 7.69276 | 166 ft | 0 kts | 248° |
| 2026-05-05 15:27 | 52.13215 | 7.69272 | 166 ft | 2 kts | 249° |
| 2026-05-05 15:27 | 52.13203 | 7.69220 | 166 ft | 7 kts | 249° |
| 2026-05-05 15:27 | 52.13182 | 7.69124 | 166 ft | 11 kts | 254° |
| 2026-05-05 15:28 | 52.13160 | 7.69001 | 166 ft | 6 kts | 254° |
| 2026-05-05 15:28 | 52.13178 | 7.68944 | 167 ft | 7 kts | 330° |
| 2026-05-05 15:28 | 52.13231 | 7.68912 | 166 ft | 10 kts | 340° |
| 2026-05-05 15:28 | 52.13313 | 7.68865 | 164 ft | 14 kts | 342° |
| 2026-05-05 15:29 | 52.13345 | 7.68753 | 167 ft | 12 kts | 249° |
| 2026-05-05 15:29 | 52.13316 | 7.68620 | 169 ft | 13 kts | 253° |
| 2026-05-05 15:29 | 52.13287 | 7.68468 | 169 ft | 16 kts | 251° |
| 2026-05-05 15:29 | 52.13248 | 7.68285 | 169 ft | 18 kts | 251° |
| 2026-05-05 15:30 | 52.13206 | 7.68089 | 167 ft | 20 kts | 251° |
| 2026-05-05 15:30 | 52.13157 | 7.67859 | 165 ft | 23 kts | 251° |
| 2026-05-05 15:30 | 52.13098 | 7.67588 | 161 ft | 27 kts | 250° |
| 2026-05-05 15:30 | 52.13039 | 7.67309 | 162 ft | 22 kts | 252° |
| 2026-05-05 15:31 | 52.13051 | 7.67120 | 164 ft | 16 kts | 312° |
| 2026-05-05 15:31 | 52.13143 | 7.67044 | 164 ft | 11 kts | 360° |
| 2026-05-05 15:31 | 52.13172 | 7.67097 | 162 ft | 0 kts | 71° |
| 2026-05-05 15:32 | 52.13172 | 7.67099 | 162 ft | 6 kts | 71° |
| 2026-05-05 15:32 | 52.13284 | 7.67608 | 163 ft | 89 kts | 71° |
| 2026-05-05 15:32 | 52.13563 | 7.68914 | 211 ft | 152 kts | 70° |
| 2026-05-05 15:33 | 52.13884 | 7.70584 | 1038 ft | 159 kts | 71° |
| 2026-05-05 15:33 | 52.14213 | 7.72388 | 1942 ft | 176 kts | 72° |
| 2026-05-05 15:33 | 52.14595 | 7.74420 | 2505 ft | 199 kts | 70° |
| 2026-05-05 15:33 | 52.15097 | 7.76649 | 3038 ft | 222 kts | 68° |
| 2026-05-05 15:34 | 52.15671 | 7.79143 | 3593 ft | 245 kts | 69° |
| 2026-05-05 15:34 | 52.16248 | 7.81828 | 4304 ft | 259 kts | 74° |
| 2026-05-05 15:34 | 52.16571 | 7.84708 | 5168 ft | 267 kts | 83° |
| 2026-05-05 15:34 | 52.16805 | 7.87735 | 6076 ft | 273 kts | 83° |
| 2026-05-05 15:35 | 52.17050 | 7.90842 | 6934 ft | 281 kts | 83° |
| 2026-05-05 15:35 | 52.17305 | 7.94028 | 7787 ft | 286 kts | 84° |
| 2026-05-05 15:35 | 52.17566 | 7.97267 | 8794 ft | 290 kts | 84° |
| 2026-05-05 15:35 | 52.17955 | 8.00494 | 9776 ft | 295 kts | 70° |
| 2026-05-05 15:36 | 52.18936 | 8.03534 | 10331 ft | 314 kts | 59° |
| 2026-05-05 15:36 | 52.20147 | 8.06635 | 10691 ft | 335 kts | 58° |
| 2026-05-05 15:36 | 52.21377 | 8.09986 | 11161 ft | 351 kts | 62° |
| 2026-05-05 15:36 | 52.22509 | 8.13556 | 11887 ft | 356 kts | 66° |
| 2026-05-05 15:37 | 52.23475 | 8.17224 | 12906 ft | 355 kts | 70° |
| 2026-05-05 15:37 | 52.24282 | 8.21050 | 13753 ft | 359 kts | 74° |
| 2026-05-05 15:37 | 52.24892 | 8.24991 | 14590 ft | 360 kts | 77° |
| 2026-05-05 15:37 | 52.25633 | 8.28940 | 15244 ft | 367 kts | 68° |
| 2026-05-05 15:38 | 52.26943 | 8.32543 | 15885 ft | 374 kts | 51° |
| 2026-05-05 15:38 | 52.28825 | 8.35549 | 16651 ft | 377 kts | 39° |
| 2026-05-05 15:38 | 52.30994 | 8.38027 | 17257 ft | 385 kts | 32° |
| 2026-05-05 15:38 | 52.33329 | 8.40229 | 17914 ft | 388 kts | 28° |
| 2026-05-05 15:39 | 52.35719 | 8.42309 | 18596 ft | 392 kts | 27° |
| 2026-05-05 15:39 | 52.38101 | 8.44347 | 19137 ft | 396 kts | 27° |
| 2026-05-05 15:39 | 52.40544 | 8.46446 | 19756 ft | 399 kts | 28° |
| 2026-05-05 15:39 | 52.43038 | 8.48611 | 20315 ft | 404 kts | 28° |
| 2026-05-05 15:40 | 52.45525 | 8.50783 | 20918 ft | 407 kts | 28° |
| 2026-05-05 15:40 | 52.48037 | 8.52990 | 21447 ft | 413 kts | 27° |
| 2026-05-05 15:40 | 52.50581 | 8.55229 | 22002 ft | 417 kts | 27° |
| 2026-05-05 15:40 | 52.53147 | 8.57491 | 22532 ft | 421 kts | 27° |
| 2026-05-05 15:41 | 52.55714 | 8.59758 | 22659 ft | 423 kts | 27° |
| 2026-05-05 15:41 | 52.58328 | 8.62068 | 22759 ft | 423 kts | 27° |
| 2026-05-05 15:41 | 52.60887 | 8.64333 | 22864 ft | 424 kts | 27° |
| 2026-05-05 15:41 | 52.63488 | 8.66638 | 22884 ft | 424 kts | 27° |
| 2026-05-05 15:42 | 52.66086 | 8.68943 | 22888 ft | 424 kts | 28° |
| 2026-05-05 15:42 | 52.68681 | 8.71249 | 22886 ft | 424 kts | 28° |
| 2026-05-05 15:42 | 52.71282 | 8.73568 | 22887 ft | 426 kts | 27° |
| 2026-05-05 15:42 | 52.73887 | 8.75892 | 22896 ft | 426 kts | 27° |
| 2026-05-05 15:43 | 52.76475 | 8.78201 | 22894 ft | 425 kts | 27° |
| 2026-05-05 15:43 | 52.79073 | 8.80521 | 22897 ft | 425 kts | 27° |
| 2026-05-05 15:43 | 52.81699 | 8.82869 | 22900 ft | 425 kts | 27° |
| 2026-05-05 15:43 | 52.84302 | 8.85200 | 22904 ft | 426 kts | 27° |
| 2026-05-05 15:44 | 52.86868 | 8.87501 | 22906 ft | 426 kts | 27° |
| 2026-05-05 15:44 | 52.89448 | 8.89818 | 22906 ft | 426 kts | 27° |
| 2026-05-05 15:44 | 52.92056 | 8.92163 | 22914 ft | 426 kts | 27° |
| 2026-05-05 15:44 | 52.94651 | 8.94505 | 22905 ft | 425 kts | 26° |
| 2026-05-05 15:45 | 52.97250 | 8.96850 | 22910 ft | 425 kts | 26° |
| 2026-05-05 15:45 | 52.99855 | 8.99203 | 22913 ft | 426 kts | 26° |
| 2026-05-05 15:45 | 53.02449 | 9.01548 | 22905 ft | 425 kts | 26° |
| 2026-05-05 15:45 | 53.05067 | 9.03918 | 22905 ft | 425 kts | 26° |
| 2026-05-05 15:46 | 53.07668 | 9.06277 | 22907 ft | 426 kts | 26° |
| 2026-05-05 15:46 | 53.10266 | 9.08635 | 22905 ft | 425 kts | 27° |
| 2026-05-05 15:46 | 53.12827 | 9.10964 | 22904 ft | 425 kts | 27° |
| 2026-05-05 15:46 | 53.15409 | 9.13314 | 22902 ft | 425 kts | 27° |
| 2026-05-05 15:47 | 53.18002 | 9.15679 | 22897 ft | 425 kts | 27° |
| 2026-05-05 15:47 | 53.19740 | 9.17266 | 22895 ft | 425 kts | 27° |
| 2026-05-05 15:47 | 53.23211 | 9.20439 | 22894 ft | 425 kts | 27° |
| 2026-05-05 15:47 | 53.25782 | 9.22793 | 22891 ft | 425 kts | 27° |
| 2026-05-05 15:48 | 53.28352 | 9.25149 | 22896 ft | 425 kts | 27° |
| 2026-05-05 15:48 | 53.30997 | 9.27578 | 22893 ft | 426 kts | 27° |
| 2026-05-05 15:48 | 53.33562 | 9.29936 | 22897 ft | 426 kts | 27° |
| 2026-05-05 15:48 | 53.36159 | 9.32328 | 22896 ft | 426 kts | 27° |
| 2026-05-05 15:49 | 53.38735 | 9.34704 | 22897 ft | 426 kts | 26° |
| 2026-05-05 15:49 | 53.41333 | 9.37104 | 22895 ft | 425 kts | 26° |
| 2026-05-05 15:49 | 53.43915 | 9.39491 | 22900 ft | 426 kts | 26° |
| 2026-05-05 15:49 | 53.46514 | 9.41876 | 22851 ft | 423 kts | 24° |
| 2026-05-05 15:50 | 53.49258 | 9.43526 | 22493 ft | 415 kts | 8° |
| 2026-05-05 15:50 | 53.52052 | 9.43911 | 22002 ft | 405 kts | 353° |
| 2026-05-05 15:50 | 53.54799 | 9.43179 | 21429 ft | 398 kts | 345° |
| 2026-05-05 15:50 | 53.57524 | 9.42340 | 20836 ft | 398 kts | 353° |
| 2026-05-05 15:51 | 53.60306 | 9.42631 | 20269 ft | 400 kts | 9° |
| 2026-05-05 15:51 | 53.62916 | 9.44256 | 19737 ft | 402 kts | 26° |
| 2026-05-05 15:51 | 53.65159 | 9.47094 | 19097 ft | 407 kts | 44° |
| 2026-05-05 15:51 | 53.66819 | 9.50928 | 18571 ft | 406 kts | 62° |
| 2026-05-05 15:52 | 53.67740 | 9.55300 | 18031 ft | 404 kts | 77° |
| 2026-05-05 15:52 | 53.68523 | 9.59912 | 17459 ft | 399 kts | 66° |
| 2026-05-05 15:52 | 53.69935 | 9.63804 | 16929 ft | 392 kts | 47° |
| 2026-05-05 15:52 | 53.71950 | 9.66752 | 16390 ft | 384 kts | 29° |
| 2026-05-05 15:53 | 53.74372 | 9.68549 | 15866 ft | 375 kts | 12° |
| 2026-05-05 15:53 | 53.76918 | 9.69165 | 15339 ft | 367 kts | 357° |
| 2026-05-05 15:53 | 53.79420 | 9.68648 | 14814 ft | 359 kts | 342° |
| 2026-05-05 15:53 | 53.81686 | 9.67102 | 14297 ft | 352 kts | 327° |
| 2026-05-05 15:54 | 53.83634 | 9.64626 | 13770 ft | 346 kts | 313° |
| 2026-05-05 15:54 | 53.85093 | 9.61486 | 13214 ft | 340 kts | 298° |
| 2026-05-05 15:54 | 53.86028 | 9.57868 | 12680 ft | 335 kts | 284° |
| 2026-05-05 15:54 | 53.86400 | 9.54006 | 12135 ft | 331 kts | 271° |
| 2026-05-05 15:55 | 53.86198 | 9.50145 | 11620 ft | 328 kts | 257° |
| 2026-05-05 15:55 | 53.85456 | 9.46560 | 11244 ft | 322 kts | 243° |
| 2026-05-05 15:55 | 53.84215 | 9.43358 | 11142 ft | 328 kts | 230° |
| 2026-05-05 15:55 | 53.82550 | 9.40730 | 11047 ft | 330 kts | 217° |
| 2026-05-05 15:56 | 53.80580 | 9.38894 | 10945 ft | 319 kts | 203° |
| 2026-05-05 15:56 | 53.78476 | 9.37949 | 10894 ft | 306 kts | 190° |
| 2026-05-05 15:56 | 53.76433 | 9.37844 | 10890 ft | 292 kts | 178° |
| 2026-05-05 15:56 | 53.74453 | 9.38477 | 10895 ft | 294 kts | 165° |
| 2026-05-05 15:57 | 53.72536 | 9.39866 | 10892 ft | 299 kts | 152° |
| 2026-05-05 15:57 | 53.70817 | 9.41793 | 10893 ft | 299 kts | 150° |
| 2026-05-05 15:57 | 53.68957 | 9.43369 | 10898 ft | 296 kts | 162° |
| 2026-05-05 15:57 | 53.66986 | 9.44307 | 10899 ft | 294 kts | 170° |
| 2026-05-05 15:58 | 53.65029 | 9.45057 | 10901 ft | 294 kts | 169° |
| 2026-05-05 15:58 | 53.63041 | 9.45833 | 10874 ft | 293 kts | 169° |
| 2026-05-05 15:58 | 53.61045 | 9.46620 | 10661 ft | 291 kts | 169° |
| 2026-05-05 15:58 | 53.59081 | 9.47395 | 10321 ft | 289 kts | 169° |
| 2026-05-05 15:59 | 53.57127 | 9.48168 | 9950 ft | 288 kts | 169° |
| 2026-05-05 15:59 | 53.55191 | 9.48932 | 9545 ft | 287 kts | 169° |
| 2026-05-05 15:59 | 53.53260 | 9.49692 | 9142 ft | 285 kts | 169° |
| 2026-05-05 15:59 | 53.51319 | 9.50138 | 8719 ft | 279 kts | 187° |
| 2026-05-05 16:00 | 53.49531 | 9.49238 | 8588 ft | 260 kts | 212° |
| 2026-05-05 16:00 | 53.48223 | 9.47347 | 8427 ft | 242 kts | 231° |
| 2026-05-05 16:00 | 53.47145 | 9.45182 | 8126 ft | 240 kts | 231° |
| 2026-05-05 16:00 | 53.46096 | 9.43092 | 7837 ft | 238 kts | 231° |
| 2026-05-05 16:01 | 53.45027 | 9.40971 | 7491 ft | 238 kts | 231° |
| 2026-05-05 16:01 | 53.43957 | 9.38854 | 7215 ft | 235 kts | 231° |
| 2026-05-05 16:01 | 53.42770 | 9.36966 | 6781 ft | 239 kts | 211° |
| 2026-05-05 16:01 | 53.41189 | 9.36180 | 6433 ft | 242 kts | 182° |
| 2026-05-05 16:02 | 53.39555 | 9.36756 | 6074 ft | 244 kts | 153° |
| 2026-05-05 16:02 | 53.38197 | 9.38457 | 5750 ft | 243 kts | 140° |
| 2026-05-05 16:02 | 53.36981 | 9.40431 | 5440 ft | 241 kts | 123° |
| 2026-05-05 16:02 | 53.36402 | 9.42984 | 5117 ft | 238 kts | 93° |
| 2026-05-05 16:03 | 53.36652 | 9.45668 | 4791 ft | 235 kts | 64° |
| 2026-05-05 16:03 | 53.37594 | 9.47884 | 4459 ft | 234 kts | 48° |
| 2026-05-05 16:03 | 53.38645 | 9.49919 | 4220 ft | 229 kts | 49° |
| 2026-05-05 16:03 | 53.39659 | 9.51910 | 4009 ft | 225 kts | 49° |
| 2026-05-05 16:04 | 53.40658 | 9.53889 | 3889 ft | 216 kts | 49° |
| 2026-05-05 16:04 | 53.41646 | 9.55852 | 3892 ft | 228 kts | 49° |
| 2026-05-05 16:04 | 53.42666 | 9.57871 | 3890 ft | 225 kts | 47° |
| 2026-05-05 16:04 | 53.43673 | 9.59764 | 3890 ft | 210 kts | 48° |
| 2026-05-05 16:05 | 53.44574 | 9.61558 | 3930 ft | 190 kts | 49° |
| 2026-05-05 16:05 | 53.45375 | 9.63169 | 3901 ft | 170 kts | 49° |
| 2026-05-05 16:05 | 53.46094 | 9.64616 | 3902 ft | 151 kts | 49° |
| 2026-05-05 16:05 | 53.46738 | 9.65909 | 3921 ft | 145 kts | 49° |
| 2026-05-05 16:06 | 53.47397 | 9.67232 | 3912 ft | 150 kts | 49° |
| 2026-05-05 16:06 | 53.48048 | 9.68542 | 3918 ft | 146 kts | 49° |
| 2026-05-05 16:06 | 53.48699 | 9.69852 | 3918 ft | 148 kts | 49° |
| 2026-05-05 16:06 | 53.49361 | 9.71185 | 3897 ft | 153 kts | 49° |
| 2026-05-05 16:07 | 53.50064 | 9.72601 | 3752 ft | 158 kts | 49° |
| 2026-05-05 16:07 | 53.50756 | 9.73997 | 3553 ft | 155 kts | 49° |
| 2026-05-05 16:07 | 53.51440 | 9.75376 | 3346 ft | 152 kts | 49° |
| 2026-05-05 16:07 | 53.52112 | 9.76730 | 3145 ft | 150 kts | 49° |
| 2026-05-05 16:08 | 53.52775 | 9.78069 | 2945 ft | 149 kts | 49° |
| 2026-05-05 16:08 | 53.53435 | 9.79398 | 2744 ft | 146 kts | 50° |
| 2026-05-05 16:08 | 53.54072 | 9.80684 | 2546 ft | 141 kts | 50° |
| 2026-05-05 16:08 | 53.54703 | 9.81957 | 2355 ft | 141 kts | 50° |
| 2026-05-05 16:09 | 53.55313 | 9.83190 | 2156 ft | 135 kts | 51° |
| 2026-05-05 16:09 | 53.55901 | 9.84379 | 1989 ft | 131 kts | 50° |
| 2026-05-05 16:09 | 53.56461 | 9.85510 | 1809 ft | 125 kts | 50° |
| 2026-05-05 16:09 | 53.57018 | 9.86636 | 1640 ft | 125 kts | 51° |
| 2026-05-05 16:10 | 53.57575 | 9.87762 | 1461 ft | 124 kts | 50° |
| 2026-05-05 16:10 | 53.58127 | 9.88878 | 1302 ft | 124 kts | 51° |
| 2026-05-05 16:10 | 53.58681 | 9.89999 | 1115 ft | 125 kts | 50° |
| 2026-05-05 16:10 | 53.59243 | 9.91136 | 937 ft | 127 kts | 50° |
| 2026-05-05 16:11 | 53.59806 | 9.92277 | 755 ft | 125 kts | 50° |
| 2026-05-05 16:11 | 53.61481 | 9.95677 | 245 ft | 128 kts | 51° |
| 2026-05-05 16:12 | 53.62041 | 9.96817 | 60 ft | 126 kts | 49° |
| 2026-05-05 16:12 | 53.62879 | 9.98504 | 49 ft | 68 kts | 50° |
| 2026-05-05 16:13 | 53.63090 | 9.99363 | 49 ft | 0 kts | 68° |
| 2026-05-05 16:14 | 53.63142 | 9.99507 | 49 ft | 14 kts | 55° |
| 2026-05-05 16:14 | 53.63212 | 9.99652 | 49 ft | 0 kts | 48° |
| 2026-05-05 16:15 | 53.63248 | 9.99716 | 50 ft | 11 kts | 45° |
| 2026-05-05 16:16 | 53.63374 | 9.99955 | 50 ft | 16 kts | 51° |
| 2026-05-05 16:16 | 53.63366 | 10.00228 | 50 ft | 15 kts | 165° |
| 2026-05-05 16:17 | 53.63334 | 10.00344 | 50 ft | 1 kts | 91° |
| 2026-05-05 16:17 | 53.63334 | 10.00352 | 50 ft | 0 kts | 91° |